Date,TemperatureHighF,TemperatureAvgF,TemperatureLowF,DewpointHighF,DewpointAvgF,DewpointLowF,HumidityHigh,HumidityAvg,HumidityLow,PressureMaxIn,PressureMinIn,WindSpeedMaxMPH,WindSpeedAvgMPH,GustSpeedMaxMPH,PrecipitationSumIn
2013-1-1,36,22,10,22,15,7,91,73,48,30.68,30.56,6,1,14,0.13
2013-1-2,39,25,17,11,8,5,78,51,28,30.68,30.54,9,3,16,0.04
2013-1-3,29,21,15,9,7,6,65,55,40,30.77,30.55,9,3,19,0.04
2013-1-4,43,25,11,10,4,-6,60,45,13,30.80,30.66,7,1,12,0.00
2013-1-5,52,27,5,14,4,-5,65,43,15,30.87,30.73,2,1,5,0.00
2013-1-6,46,30,15,14,10,3,68,46,21,30.73,30.33,4,1,12,0.00
2013-1-7,41,30,21,18,13,9,67,50,35,30.42,30.27,9,2,14,0.00
2013-1-8,50,38,26,20,12,4,56,36,22,30.52,30.37,8,2,19,0.00
2013-1-9,56,39,25,21,18,14,73,48,19,30.60,30.38,10,1,13,0.00
2013-1-10,44,32,22,28,19,14,85,60,38,30.38,29.98,13,3,24,0.00
2013-1-11,28,19,4,21,4,-6,86,56,26,30.42,30.01,6,1,17,0.00
2013-1-12,27,12,-1,4,-2,-8,74,56,31,30.62,30.41,6,1,13,0.00
2013-1-13,25,8,-8,2,-4,-14,77,60,35,30.69,30.56,7,1,8,0.00
2013-1-14,21,11,2,4,-1,-9,78,59,43,30.79,30.61,4,1,11,0.00
2013-1-15,30,17,5,7,-1,-9,59,46,34,30.96,30.78,12,2,23,0.00
2013-1-16,42,30,20,17,13,7,60,49,36,30.96,30.73,8,2,17,0.01
2013-1-17,41,31,26,17,13,10,57,48,36,30.78,30.66,12,2,22,0.01
2013-1-18,50,34,22,20,16,12,67,51,28,30.76,30.61,5,1,8,0.00
2013-1-19,49,35,27,19,16,9,64,47,24,30.70,30.61,8,1,15,0.00
2013-1-20,55,36,22,21,10,-4,57,38,9,30.66,30.50,3,1,8,0.00
2013-1-21,48,37,31,15,11,6,50,35,19,30.58,30.50,7,2,15,0.00
2013-1-22,60,40,24,21,12,-2,62,37,8,30.66,30.55,5,1,8,0.00
2013-1-23,57,39,24,28,20,13,75,51,20,30.66,30.56,4,1,6,0.00
2013-1-24,47,38,32,38,32,26,94,81,46,30.61,30.48,5,0,12,0.09
2013-1-25,50,41,34,45,38,33,95,90,75,30.58,30.36,2,0,4,0.28
2013-1-26,43,41,38,42,39,37,95,95,94,30.36,30.09,6,1,13,1.14
2013-1-27,42,39,36,40,38,33,95,94,90,30.24,30.13,8,3,16,0.13
2013-1-28,35,28,18,34,26,15,94,92,87,30.28,30.02,7,1,25,0.20
2013-1-29,28,16,1,22,12,-2,92,85,73,30.75,30.28,1,0,12,0.00
2013-1-30,39,22,6,25,15,2,90,77,52,30.90,30.76,3,0,7,0.42
2013-1-31,50,32,17,23,20,14,91,65,31,30.79,30.60,4,1,14,0.30
2013-2-1,53,35,20,25,20,12,78,58,22,30.68,30.55,5,1,6,0.02
2013-2-2,56,40,26,25,20,13,78,50,19,30.69,30.56,5,1,10,0.02
2013-2-3,46,38,32,31,28,23,82,67,49,30.57,30.31,6,0,8,0.00
2013-2-4,51,38,28,29,25,19,91,64,32,30.42,30.33,5,1,11,0.00
2013-2-5,56,38,25,24,19,15,83,53,22,30.43,30.29,6,1,8,0.00
2013-2-6,49,35,26,34,28,23,92,78,49,30.42,30.26,6,1,12,0.04
2013-2-7,50,36,25,33,26,23,92,71,36,30.49,30.30,6,0,8,0.02
2013-2-8,40,34,27,30,24,11,90,67,44,30.30,30.02,9,2,25,0.02
2013-2-9,27,24,21,22,21,18,91,88,72,30.38,29.94,8,2,13,0.00
2013-2-10,26,23,13,24,21,9,92,90,86,30.41,30.29,5,1,11,0.00
2013-2-11,29,16,5,22,12,1,91,84,68,30.68,30.41,3,0,10,0.05
2013-2-12,36,19,2,23,12,-2,88,76,53,30.82,30.68,4,1,10,0.32
2013-2-13,44,30,9,20,15,4,84,56,38,30.77,30.57,6,1,12,0.15
2013-2-14,44,31,15,22,17,10,82,58,36,30.60,30.52,11,2,19,0.04
2013-2-15,49,37,30,19,14,6,61,41,20,30.70,30.60,8,2,20,0.04
2013-2-16,57,40,27,20,8,-2,61,32,9,30.71,30.41,6,1,10,0.00
2013-2-17,51,34,17,17,13,10,77,46,22,30.40,30.16,6,1,18,0.00
2013-2-18,50,32,19,18,14,11,78,53,22,30.45,30.32,6,1,9,0.00
2013-2-19,45,33,20,23,15,11,81,52,25,30.35,29.94,9,2,19,0.00
2013-2-20,32,26,21,25,22,17,91,85,57,30.21,29.85,9,1,12,0.00
2013-2-21,28,24,22,25,22,19,92,91,89,30.42,30.22,3,0,5,0.05
2013-2-22,35,20,2,25,15,-2,91,80,55,30.64,30.41,5,1,8,0.26
2013-2-23,41,26,10,25,17,6,87,71,50,30.64,30.24,6,1,13,0.18
2013-2-24,31,25,18,21,10,1,85,56,32,30.50,30.20,11,2,21,0.18
2013-2-25,44,30,18,15,10,6,76,46,24,30.62,30.41,11,1,15,0.01
2013-2-26,43,27,13,13,5,-2,89,47,17,30.56,30.38,10,2,20,0.01
2013-2-27,40,28,19,8,2,-4,49,34,21,30.68,30.57,15,2,16,0.00
2013-2-28,48,34,25,10,1,-4,45,26,13,30.78,30.66,10,2,20,0.00
2013-3-1,55,41,22,23,18,8,61,41,26,30.79,30.64,8,2,15,0.00
2013-3-2,64,46,30,29,23,16,79,45,16,30.67,30.43,7,1,12,0.00
2013-3-3,52,40,26,28,24,22,87,57,35,30.43,30.25,7,1,13,0.00
2013-3-4,55,42,29,30,25,21,78,53,37,30.40,30.15,9,1,10,0.00
2013-3-5,54,40,28,28,23,16,82,54,26,30.52,30.36,5,1,10,0.00
2013-3-6,57,41,27,30,25,22,88,58,30,30.37,30.22,9,2,16,0.00
2013-3-7,54,41,26,27,24,22,85,56,31,30.27,30.15,10,2,19,0.00
2013-3-8,42,32,25,33,28,23,93,85,52,30.16,29.88,6,1,14,0.09
2013-3-9,30,27,24,28,26,23,94,93,91,30.50,30.17,9,1,10,0.03
2013-3-10,45,34,23,31,24,15,93,69,36,30.61,30.49,8,2,17,0.42
2013-3-11,54,39,23,27,20,14,76,50,30,30.57,30.41,5,1,12,0.36
2013-3-12,59,43,27,28,24,18,79,50,26,30.52,30.43,8,2,16,0.36
2013-3-13,64,48,31,29,25,22,75,45,24,30.56,30.46,8,1,11,0.00
2013-3-14,70,52,34,31,24,17,70,39,13,30.51,30.37,7,1,13,0.00
2013-3-15,68,48,35,34,25,-100,74,47,21,30.40,30.01,7,-34,11,0.00
2013-3-16,64,46,34,37,30,26,83,59,26,30.03,29.84,8,1,17,0.00
2013-3-17,64,45,29,32,18,-6,88,47,7,30.03,29.89,8,1,16,0.00
2013-3-18,62,44,28,28,20,13,73,45,18,30.11,30.01,6,1,13,0.00
2013-3-19,59,45,32,33,26,22,77,52,25,30.21,30.03,4,0,9,0.00
2013-3-20,59,47,32,32,28,23,73,51,34,30.21,29.94,12,2,17,0.00
2013-3-21,63,47,31,33,26,7,84,51,12,29.93,29.77,14,1,16,0.00
2013-3-22,58,44,28,32,16,-14,81,42,7,29.90,29.76,9,2,17,0.00
2013-3-23,51,36,27,9,-8,-100,46,20,7,30.13,29.89,11,-64,21,0.00
2013-3-24,56,37,21,14,6,-100,56,32,17,30.21,30.07,7,-33,14,0.00
2013-3-25,59,44,30,21,12,-100,60,30,19,30.16,30.02,10,-9,10,0.00
2013-3-26,59,45,28,25,20,17,72,41,20,30.11,29.97,10,2,17,0.00
2013-3-27,60,44,28,26,20,16,69,43,22,30.11,29.99,9,1,19,0.00
2013-3-28,60,43,27,26,22,20,76,49,24,30.23,30.11,8,1,14,0.00
2013-3-29,65,48,32,32,26,24,73,47,23,30.25,30.12,8,1,10,0.00
2013-3-30,62,49,34,35,28,24,70,47,26,30.20,30.08,6,1,12,0.00
2013-3-31,65,49,33,34,28,25,78,49,26,30.13,29.99,8,1,16,0.00
2013-4-1,59,45,30,33,24,19,86,49,25,30.01,29.93,11,2,17,0.00
2013-4-2,57,42,28,30,24,19,72,52,27,30.08,29.96,8,1,17,0.00
2013-4-3,64,48,33,31,25,18,77,45,17,30.17,30.08,8,2,19,0.00
2013-4-4,66,51,33,28,23,17,60,37,16,30.21,30.05,7,1,10,0.00
2013-4-5,65,50,33,31,28,25,72,45,27,30.06,29.89,14,2,16,0.00
2013-4-6,63,46,32,32,22,-100,78,46,26,30.03,29.91,7,-50,12,0.00
2013-4-7,63,49,30,32,28,25,80,48,26,29.98,29.79,6,1,14,0.00
2013-4-8,48,42,34,36,30,24,80,64,52,29.79,29.31,22,4,31,0.07
2013-4-9,43,34,26,32,26,18,93,75,43,30.03,29.50,5,1,12,0.19
2013-4-10,50,38,26,26,19,10,80,52,20,30.20,30.03,13,2,18,0.00
2013-4-11,59,43,26,26,23,19,79,49,25,30.16,29.93,10,1,11,0.00
2013-4-12,65,48,30,31,26,22,77,46,22,29.97,29.86,5,1,10,0.00
2013-4-13,65,50,30,28,24,21,74,41,21,29.96,29.73,11,3,16,0.00
2013-4-14,62,52,41,30,27,23,51,38,28,29.75,29.63,10,3,18,0.00
2013-4-15,60,50,42,34,30,26,58,48,32,29.70,29.63,13,5,24,0.00
2013-4-16,53,46,36,34,28,17,72,51,30,29.76,29.67,15,4,25,0.00
2013-4-17,44,36,27,25,16,6,74,47,24,30.20,29.76,9,1,13,0.02
2013-4-18,50,36,24,14,6,1,61,32,15,30.39,30.20,10,1,18,0.00
2013-4-19,59,44,28,14,7,1,42,23,11,30.38,30.09,7,1,12,0.00
2013-4-20,67,47,28,21,15,11,54,32,12,30.13,29.99,8,1,16,0.00
2013-4-21,69,52,33,26,20,14,59,32,14,30.15,30.02,8,1,12,0.00
2013-4-22,71,52,30,27,21,17,64,34,16,30.06,29.84,9,2,18,0.00
2013-4-23,66,50,34,28,13,-17,62,30,3,29.99,29.83,12,2,16,0.00
2013-4-24,64,48,28,25,18,6,53,33,19,30.04,29.97,8,1,16,0.00
2013-4-25,61,47,31,29,23,7,70,44,12,30.14,29.95,8,2,19,0.00
2013-4-26,68,49,31,33,25,21,80,45,18,30.23,30.14,9,1,13,0.00
2013-4-27,71,54,32,23,17,11,60,27,11,30.23,30.04,6,1,14,0.00
2013-4-28,75,56,33,25,16,10,46,24,9,30.07,29.86,7,1,10,0.00
2013-4-29,78,61,39,30,20,14,48,24,9,29.92,29.71,6,1,14,0.00
2013-4-30,73,58,39,30,17,-100,53,24,12,29.79,29.68,15,-18,22,0.00
2013-5-1,72,56,36,28,15,-7,50,23,8,30.14,29.79,10,2,20,0.00
2013-5-2,60,48,36,11,5,-5,31,18,7,30.29,30.15,19,4,31,0.00
2013-5-3,69,54,37,18,10,4,40,19,8,30.29,29.91,5,1,10,0.00
2013-5-4,70,54,34,24,15,7,48,25,10,29.92,29.77,6,1,16,0.00
2013-5-5,63,53,44,33,21,14,54,29,20,29.93,29.82,10,2,16,0.00
2013-5-6,57,49,36,39,34,30,79,59,43,29.98,29.86,12,2,17,0.00
2013-5-7,57,48,36,40,35,27,90,63,37,29.98,29.86,10,2,17,0.11
2013-5-8,58,45,30,36,30,27,94,62,32,30.13,29.98,5,1,10,0.03
2013-5-9,64,48,33,35,31,23,80,56,21,30.11,30.00,12,1,14,0.00
2013-5-10,67,54,40,36,32,27,75,47,22,30.18,30.04,6,1,15,0.00
2013-5-11,69,55,42,37,32,28,69,44,21,30.21,30.14,11,2,17,0.00
2013-5-12,76,58,39,33,27,22,64,35,15,30.25,30.07,7,1,13,0.00
2013-5-13,78,61,41,37,28,25,53,32,15,30.14,29.96,6,1,10,0.00
2013-5-14,77,59,41,41,31,27,64,39,17,30.02,29.89,13,1,17,0.00
2013-5-15,74,58,40,37,24,14,67,33,13,29.98,29.85,10,2,20,0.00
2013-5-16,74,58,34,33,22,13,59,29,10,29.96,29.82,13,2,19,0.00
2013-5-17,68,56,40,29,24,20,52,30,22,29.88,29.83,11,2,20,0.00
2013-5-18,67,54,36,34,29,23,64,40,28,29.95,29.87,7,1,15,0.00
2013-5-19,71,56,38,34,27,19,67,36,17,29.95,29.79,9,2,16,0.00
2013-5-20,68,55,41,25,21,11,47,28,13,29.98,29.87,6,1,13,0.00
2013-5-21,74,58,39,29,23,20,50,29,16,30.00,29.83,8,1,16,0.00
2013-5-22,74,59,38,29,23,19,52,28,15,29.84,29.72,10,3,20,0.00
2013-5-23,73,62,50,28,22,18,35,22,14,29.80,29.72,10,3,38,0.00
2013-5-24,74,59,38,33,22,12,62,28,11,29.94,29.80,9,2,18,0.00
2013-5-25,74,58,40,26,19,8,50,25,8,29.96,29.90,9,2,17,0.00
2013-5-26,72,58,37,25,17,9,50,23,9,29.96,29.89,8,2,15,0.00
2013-5-27,70,55,38,32,23,16,49,30,17,29.94,29.81,6,1,14,0.00
2013-5-28,70,55,36,32,28,22,60,38,22,29.84,29.67,8,2,16,0.00
2013-5-29,74,59,39,37,30,27,71,38,19,29.77,29.67,13,2,20,0.00
2013-5-30,76,60,41,41,36,26,67,42,28,29.85,29.76,8,1,17,0.00
2013-5-31,81,64,44,44,39,35,73,43,22,29.90,29.80,5,1,11,0.00
2013-6-1,83,68,56,38,20,14,50,17,10,29.89,29.76,9,2,16,0.00
2013-6-2,83,68,52,38,28,15,37,23,13,29.82,29.68,10,2,18,0.00
2013-6-3,81,64,45,36,28,24,58,29,13,29.86,29.71,7,1,16,0.00
2013-6-4,81,63,43,36,26,20,55,29,14,29.90,29.81,10,2,18,0.00
2013-6-5,83,66,45,36,27,24,45,26,13,29.91,29.78,6,1,10,0.00
2013-6-6,86,69,48,32,26,21,50,24,9,29.86,29.72,10,1,16,0.00
2013-6-7,88,69,47,31,24,13,43,22,7,29.80,29.68,9,1,14,0.00
2013-6-8,90,72,49,40,27,23,41,22,10,29.82,29.70,9,2,18,0.00
2013-6-9,90,71,51,37,29,21,45,24,11,29.84,29.75,7,1,10,0.00
2013-6-10,84,69,47,35,20,9,45,19,7,29.87,29.78,10,2,19,0.00
2013-6-11,87,68,46,34,24,17,41,20,9,29.91,29.83,6,1,14,0.00
2013-6-12,89,71,52,37,27,23,37,22,10,29.97,29.83,7,1,15,0.00
2013-6-13,85,69,49,40,34,28,50,29,17,29.99,29.88,7,2,17,0.00
2013-6-14,84,68,48,41,35,32,60,32,17,29.94,29.83,10,1,17,0.00
2013-6-15,80,67,49,44,37,31,55,35,22,30.02,29.89,7,2,16,0.00
2013-6-16,84,68,50,39,31,25,54,29,14,30.05,29.95,7,2,16,0.00
2013-6-17,83,67,49,34,25,18,42,24,9,30.04,29.94,7,1,14,0.00
2013-6-18,83,66,43,29,19,12,42,19,7,30.00,29.88,8,2,16,0.00
2013-6-19,81,65,43,26,19,14,41,18,10,29.88,29.81,11,2,19,0.00
2013-6-20,80,66,44,28,22,19,41,21,10,29.91,29.85,12,2,15,0.00
2013-6-21,79,65,46,32,23,17,48,23,10,29.95,29.88,9,2,15,0.00
2013-6-22,81,63,43,33,26,20,49,26,14,29.98,29.88,10,2,13,0.00
2013-6-23,80,64,43,31,22,15,49,23,9,29.96,29.83,9,2,17,0.00
2013-6-24,78,65,49,34,25,20,38,23,12,29.96,29.85,7,2,15,0.00
2013-6-25,81,65,46,34,29,25,50,28,14,30.06,29.95,6,1,12,0.00
2013-6-26,86,67,46,32,24,13,46,23,8,30.14,30.06,5,1,10,0.00
2013-6-27,92,71,50,40,32,25,48,27,10,30.17,30.03,5,1,10,0.00
2013-6-28,97,78,56,38,34,29,41,23,9,30.05,29.88,7,1,17,0.00
2013-6-29,94,77,60,44,37,34,41,25,13,29.95,29.82,7,1,12,0.00
2013-6-30,92,75,61,62,42,35,84,33,15,29.91,29.80,6,1,12,0.10
2013-7-1,93,75,58,52,46,33,70,39,12,29.96,29.83,8,1,12,0.00
2013-7-2,81,67,56,59,50,41,82,56,38,30.02,29.89,6,1,15,0.04
2013-7-3,86,69,51,53,49,44,84,52,23,30.05,29.88,4,1,9,0.00
2013-7-4,86,73,57,51,47,44,61,42,27,29.90,29.78,5,1,12,0.00
2013-7-5,81,72,62,54,50,47,66,48,33,29.88,29.78,8,1,15,0.00
2013-7-6,83,65,59,59,52,47,88,63,34,29.93,29.82,8,1,13,0.10
2013-7-7,87,72,56,55,49,44,84,50,23,29.98,29.88,7,1,11,0.00
2013-7-8,91,72,59,51,46,39,69,44,17,30.00,29.90,8,1,11,0.00
2013-7-9,91,71,57,57,50,40,72,50,20,30.05,29.93,6,1,15,0.07
2013-7-10,84,70,61,59,55,49,80,60,35,30.03,29.90,6,1,10,0.00
2013-7-11,76,68,60,60,56,53,83,68,51,29.98,29.89,7,1,13,0.02
2013-7-12,79,62,54,58,55,52,92,79,43,30.05,29.93,7,1,13,0.20
2013-7-13,83,68,53,58,53,50,93,62,34,30.10,30.00,5,1,14,0.00
2013-7-14,88,70,58,60,53,50,79,57,28,30.01,29.90,7,1,11,0.03
2013-7-15,84,69,58,56,53,50,77,58,33,29.95,29.85,8,1,11,0.00
2013-7-16,72,64,58,61,56,52,92,76,54,30.09,29.91,7,0,9,0.12
2013-7-17,75,63,53,61,56,51,93,80,52,30.17,30.08,4,0,8,0.52
2013-7-18,80,68,54,60,55,51,92,67,42,30.13,29.96,5,1,11,0.00
2013-7-19,82,67,57,60,56,52,92,70,44,30.00,29.87,5,0,10,0.13
2013-7-20,76,64,55,63,58,53,94,81,59,29.99,29.85,5,0,10,0.13
2013-7-21,73,64,57,62,59,56,95,83,62,30.03,29.88,7,1,9,0.17
2013-7-22,76,64,57,61,57,54,91,79,59,30.07,29.99,6,0,10,0.00
2013-7-23,79,66,55,61,57,52,94,73,48,30.07,29.96,6,1,14,0.00
2013-7-24,80,66,56,65,58,52,88,75,42,30.03,29.91,5,0,16,0.05
2013-7-25,75,66,60,63,60,57,94,80,59,30.10,29.98,4,0,9,0.17
2013-7-26,76,64,58,64,58,53,94,83,57,30.18,30.09,5,0,15,0.21
2013-7-27,78,65,56,60,56,54,93,76,49,30.16,29.95,6,1,14,0.22
2013-7-28,77,62,52,60,55,51,96,78,46,30.01,29.92,8,1,17,0.12
2013-7-29,80,65,51,54,51,46,93,64,36,30.16,30.00,7,1,13,0.01
2013-7-30,84,68,52,51,46,41,76,51,22,30.23,30.11,5,1,10,0.00
2013-7-31,87,71,55,54,49,46,74,49,26,30.17,30.01,7,1,9,0.00
2013-8-1,79,69,57,58,54,51,83,61,42,30.04,29.93,5,1,9,0.00
2013-8-2,83,68,55,57,53,49,88,64,34,30.04,29.96,6,1,13,0.00
2013-8-3,84,68,54,57,52,47,85,59,29,30.08,29.99,6,1,9,0.00
2013-8-4,81,69,58,56,52,48,73,56,33,30.07,30.00,7,1,14,0.00
2013-8-5,81,64,54,56,50,37,92,66,24,30.09,29.99,5,1,8,0.29
2013-8-6,64,60,57,57,54,49,91,81,69,30.11,30.01,2,0,6,0.02
2013-8-7,74,64,54,56,52,49,86,66,42,30.14,30.02,5,0,10,0.01
2013-8-8,81,64,48,50,40,31,88,49,18,30.10,29.98,5,1,11,0.00
2013-8-9,82,65,47,40,35,29,67,38,16,30.07,30.00,7,1,15,0.00
2013-8-10,80,65,48,49,37,32,72,40,18,30.13,30.05,4,1,14,0.00
2013-8-11,78,65,52,52,48,44,79,56,35,30.11,29.98,6,1,12,0.00
2013-8-12,83,68,52,51,43,38,79,45,22,30.08,29.96,5,1,13,0.00
2013-8-13,85,68,52,42,37,32,59,36,17,30.10,30.00,6,1,15,0.00
2013-8-14,86,69,54,45,41,35,55,38,22,30.07,29.96,4,1,12,0.00
2013-8-15,83,68,60,55,49,43,78,54,29,30.08,30.01,4,0,11,0.03
2013-8-16,86,71,58,55,50,47,75,51,25,30.10,30.00,6,1,17,0.00
2013-8-17,86,66,57,56,51,47,85,62,29,30.14,29.98,5,1,12,0.07
2013-8-18,84,67,54,55,50,44,86,57,28,30.10,30.03,9,1,15,0.04
2013-8-19,80,65,55,64,51,48,92,65,36,30.09,30.00,7,0,12,0.41
2013-8-20,85,69,52,52,48,46,78,52,26,30.08,29.93,7,1,10,0.00
2013-8-21,74,66,57,56,52,48,83,62,46,30.06,29.96,5,1,12,0.00
2013-8-22,80,68,60,59,52,48,77,57,35,30.07,29.92,5,0,8,0.01
2013-8-23,79,66,54,55,51,47,84,61,34,30.00,29.90,6,1,13,0.00
2013-8-24,72,62,56,58,53,47,92,74,48,30.07,29.96,6,0,8,0.20
2013-8-25,65,59,56,59,56,54,94,88,77,30.18,30.07,3,0,6,0.77
2013-8-26,74,63,56,63,58,51,94,84,52,30.18,30.00,7,1,16,0.67
2013-8-27,76,62,56,61,56,54,94,81,50,30.07,29.99,5,1,11,0.86
2013-8-28,77,65,53,61,56,51,92,74,45,30.09,30.00,7,0,8,0.00
2013-8-29,75,64,53,61,56,50,93,78,59,30.19,30.08,4,0,8,1.11
2013-8-30,72,58,58,63,48,-100,95,82,69,30.19,30.03,2,-73,6,0.30
2013-8-31,72,62,57,63,59,55,96,91,66,30.10,30.00,5,0,10,0.23
2013-9-1,79,65,54,61,56,52,96,77,45,30.10,29.98,6,0,9,0.01
2013-9-2,80,66,54,59,55,51,91,71,41,30.07,29.96,4,0,10,0.02
2013-9-3,82,68,56,57,52,47,84,59,37,30.08,29.98,5,1,12,0.00
2013-9-4,79,66,58,61,54,49,88,67,40,30.08,29.98,5,0,21,0.19
2013-9-5,80,66,55,59,52,47,89,64,34,30.15,30.04,4,0,9,0.00
2013-9-6,80,67,55,58,51,47,85,59,33,30.11,29.97,4,0,8,0.01
2013-9-7,78,56,57,59,34,-100,93,64,49,30.04,29.92,4,-135,8,0.14
2013-9-8,63,52,56,58,38,-100,94,78,78,30.01,29.91,2,-114,7,0.47
2013-9-9,58,57,52,56,55,50,95,93,89,29.98,29.85,2,0,7,0.93
2013-9-10,61,55,50,57,53,49,96,92,82,30.05,29.93,6,0,11,0.50
2013-9-11,66,56,49,56,52,47,95,86,64,30.14,30.05,4,1,8,0.25
2013-9-12,73,59,46,52,48,44,92,69,39,30.15,29.99,3,0,7,0.00
2013-9-13,76,63,51,52,48,44,84,62,35,30.02,29.83,5,0,9,0.00
2013-9-14,77,50,50,56,20,-100,93,55,37,29.93,29.82,8,-197,14,0.96
2013-9-15,75,45,52,55,5,-100,93,44,39,29.98,29.87,5,-305,8,0.03
2013-9-16,75,62,50,59,52,46,88,71,47,30.07,29.96,2,0,8,0.01
2013-9-17,76,64,52,57,53,49,92,71,45,30.00,29.82,6,1,15,0.00
2013-9-18,76,61,46,52,43,33,92,58,25,29.92,29.83,7,1,18,0.00
2013-9-19,77,58,44,50,36,-100,80,52,27,30.00,29.91,5,-41,10,0.00
2013-9-20,77,62,49,47,43,38,77,53,30,30.02,29.93,8,1,12,0.00
2013-9-21,73,62,49,52,48,44,88,62,43,30.00,29.80,8,1,17,0.00
2013-9-22,64,57,40,49,36,18,72,50,17,29.93,29.63,13,3,24,0.00
2013-9-23,72,54,35,43,34,29,84,52,28,30.19,29.93,4,0,6,0.00
2013-9-24,73,53,41,38,24,-100,71,41,23,30.18,29.98,4,-74,11,0.00
2013-9-25,68,57,44,40,35,29,69,45,25,29.97,29.77,9,2,22,0.00
2013-9-26,66,55,43,47,38,31,90,54,29,29.82,29.70,13,3,26,0.27
2013-9-27,60,47,38,40,28,17,90,53,22,30.24,29.83,4,0,8,0.00
2013-9-28,68,50,37,35,26,21,58,41,23,30.35,30.24,6,1,10,0.00
2013-9-29,70,51,34,41,34,27,79,57,30,30.35,30.20,5,0,8,0.00
2013-9-30,71,52,36,39,32,25,84,54,18,30.24,30.10,4,1,9,0.00
2013-10-1,71,52,35,37,31,28,78,51,23,30.19,30.10,6,1,11,0.00
2013-10-2,68,50,34,41,34,29,86,60,28,30.19,30.06,8,1,13,0.00
2013-10-3,65,52,36,42,34,28,87,55,28,30.09,29.88,12,2,18,0.00
2013-10-4,58,46,38,29,20,13,59,38,24,30.35,30.00,12,2,17,0.00
2013-10-5,56,43,36,24,16,-100,49,36,26,30.47,30.34,10,-29,27,0.00
2013-10-6,67,51,39,21,15,-100,37,25,15,30.46,30.31,6,-9,21,0.00
2013-10-7,70,53,34,32,26,17,60,38,20,30.31,30.10,4,0,7,0.00
2013-10-8,66,52,36,31,27,24,66,41,22,30.10,29.91,8,2,19,0.00
2013-10-9,60,51,43,41,31,23,69,47,28,29.90,29.75,12,3,26,0.00
2013-10-10,46,36,30,37,33,28,93,87,62,30.24,29.73,9,1,16,0.32
2013-10-11,57,40,26,38,32,24,94,75,43,30.36,30.23,7,0,9,0.16
2013-10-12,62,45,32,36,30,25,87,60,31,30.27,30.12,6,1,12,0.00
2013-10-13,59,46,30,37,31,27,91,60,35,30.19,30.08,17,2,20,0.00
2013-10-14,59,43,29,31,24,19,84,52,24,30.25,30.17,4,1,8,0.00
2013-10-15,59,44,31,28,25,21,77,49,24,30.24,30.11,5,1,10,0.00
2013-10-16,59,45,34,28,26,23,66,50,27,30.30,30.21,6,1,13,0.00
2013-10-17,61,42,28,27,21,14,77,48,18,30.33,30.18,5,1,8,0.00
2013-10-18,60,46,29,22,19,14,72,37,21,30.32,30.23,11,1,13,0.00
2013-10-19,65,49,34,25,20,15,56,33,18,30.30,30.17,7,1,9,0.00
2013-10-20,65,46,32,25,21,18,61,42,18,30.21,30.09,6,0,9,0.00
2013-10-21,63,48,30,24,21,18,69,38,21,30.32,30.20,7,1,14,0.00
2013-10-22,67,51,37,27,23,20,52,35,18,30.32,30.19,4,1,7,0.00
2013-10-23,69,50,34,29,23,-100,64,39,17,30.24,30.14,4,-10,9,0.00
2013-10-24,67,53,41,36,27,17,56,38,17,30.19,30.08,4,0,10,0.00
2013-10-25,65,51,37,38,31,23,85,51,23,30.29,30.18,5,0,8,0.00
2013-10-26,63,51,37,36,32,29,80,52,29,30.34,30.26,9,1,16,0.00
2013-10-27,65,52,36,35,30,25,79,47,25,30.26,29.89,5,1,12,0.00
2013-10-28,54,49,45,37,29,25,68,47,40,29.91,29.82,9,3,26,0.00
2013-10-29,47,41,36,38,35,29,86,77,61,30.09,29.90,23,3,23,0.03
2013-10-30,49,36,27,35,28,23,91,74,39,30.32,30.08,6,1,10,0.07
2013-10-31,54,37,24,28,24,21,92,64,33,30.44,30.32,5,0,8,0.00
2013-11-1,60,45,27,29,24,19,77,46,22,30.45,30.35,6,1,15,0.00
2013-11-2,65,47,31,27,21,15,68,40,18,30.38,30.09,5,1,11,0.00
2013-11-3,58,45,31,33,26,19,73,49,33,30.09,29.95,9,1,14,0.00
2013-11-4,53,41,27,34,27,22,85,60,40,30.09,29.96,10,1,16,0.00
2013-11-5,50,38,30,31,20,3,82,52,28,30.46,30.08,7,1,13,0.00
2013-11-6,55,41,32,9,2,-12,35,21,11,30.61,30.46,5,1,17,0.00
2013-11-7,63,45,30,20,13,4,52,29,16,30.57,30.35,4,1,10,0.00
2013-11-8,61,40,26,25,19,13,69,47,19,30.41,30.28,4,0,8,0.00
2013-11-9,62,43,30,31,24,20,74,51,21,30.43,30.33,5,1,7,0.00
2013-11-10,62,44,31,37,26,21,70,52,29,30.45,30.36,4,1,7,0.00
2013-11-11,63,50,34,27,23,19,69,39,23,30.44,30.34,10,2,15,0.00
2013-11-12,64,52,44,24,20,17,38,29,18,30.48,30.38,6,1,12,0.00
2013-11-13,63,48,35,37,30,18,73,50,30,30.41,30.20,3,0,8,0.00
2013-11-14,61,44,29,31,25,21,88,54,22,30.26,30.07,5,1,10,0.00
2013-11-15,52,42,31,39,34,25,92,73,55,30.06,29.80,11,2,20,0.25
2013-11-16,46,41,37,39,36,34,94,85,67,30.08,29.86,10,2,18,0.01
2013-11-17,50,40,32,38,35,29,92,82,62,30.36,30.09,5,1,9,0.00
2013-11-18,56,40,28,40,32,26,92,77,48,30.45,30.30,4,0,8,0.00
2013-11-19,53,40,28,41,34,26,94,79,57,30.32,30.11,7,1,10,0.00
2013-11-20,46,40,34,40,37,32,94,89,76,30.14,29.99,7,0,10,0.01
2013-11-21,43,40,36,41,38,34,99,92,86,30.16,30.07,4,0,8,0.12
2013-11-22,37,35,33,35,34,31,94,93,91,30.24,30.09,7,1,12,0.97
2013-11-23,38,34,32,34,32,30,94,92,83,30.31,30.21,4,0,10,0.35
2013-11-24,34,32,26,32,30,25,94,93,90,30.42,30.29,3,0,5,0.09
2013-11-25,45,34,22,32,24,20,94,71,42,30.56,30.41,8,1,24,0.01
2013-11-26,46,37,28,30,25,20,88,63,45,30.58,30.46,14,2,18,0.00
2013-11-27,44,34,28,30,27,23,92,75,49,30.52,30.32,10,1,12,0.00
2013-11-28,52,35,25,27,23,19,83,65,35,30.46,30.33,3,0,8,0.00
2013-11-29,52,38,27,33,28,23,85,71,46,30.50,30.40,5,1,9,0.00
2013-11-30,53,37,29,32,28,25,88,72,38,30.50,30.37,5,1,6,0.00
2013-12-1,50,35,27,31,25,17,86,68,37,30.55,30.47,5,1,13,0.00
2013-12-2,58,38,27,28,23,17,82,58,28,30.52,30.17,5,0,8,0.00
2013-12-3,48,38,25,30,25,22,92,63,47,30.16,29.88,9,2,20,0.00
2013-12-4,41,31,22,34,28,20,92,86,63,30.09,29.74,13,3,29,0.16
2013-12-5,29,23,10,23,18,7,92,83,68,30.35,30.08,5,1,8,0.02
2013-12-6,31,16,4,15,8,0,94,72,42,30.59,30.36,4,0,7,0.01
2013-12-7,27,19,6,25,15,3,92,83,72,30.52,30.27,9,2,22,0.00
2013-12-8,29,26,19,26,23,16,93,88,82,30.38,30.25,7,2,19,0.00
2013-12-9,23,15,2,16,4,-2,88,64,45,30.87,30.34,12,2,20,0.00
2013-12-10,43,25,13,10,3,-3,58,41,18,30.86,30.59,7,1,13,0.16
2013-12-11,41,27,14,14,6,-1,57,42,26,30.75,30.60,8,2,14,0.07
2013-12-12,51,34,26,29,19,11,79,56,37,30.71,30.40,7,1,12,0.14
2013-12-13,46,31,19,30,23,16,88,74,53,30.49,30.35,4,0,8,0.00
2013-12-14,39,32,26,18,16,15,65,53,40,30.70,30.49,14,2,25,0.00
2013-12-15,49,40,31,21,16,9,53,38,32,30.69,30.54,8,2,19,0.00
2013-12-16,57,45,36,22,17,14,53,35,19,30.56,30.45,7,2,15,0.00
2013-12-17,56,43,35,24,20,14,64,41,23,30.54,30.41,7,1,12,0.00
2013-12-18,57,39,28,30,21,16,78,52,21,30.40,30.06,2,0,5,0.00
2013-12-19,43,37,29,31,26,22,92,65,46,30.06,29.86,10,1,18,0.00
2013-12-20,38,32,23,33,29,20,93,90,80,30.02,29.86,4,0,10,0.24
2013-12-21,30,26,20,28,24,18,93,91,88,30.35,29.99,3,0,4,0.00
2013-12-22,38,24,9,29,18,6,93,79,48,30.70,30.36,3,0,6,0.18
2013-12-23,42,34,26,22,19,17,72,56,44,30.74,30.63,12,2,17,0.06
2013-12-24,55,38,24,27,21,17,74,53,27,30.63,30.43,7,1,19,0.03
2013-12-25,43,35,29,23,12,6,65,40,23,30.58,30.48,9,3,22,0.00
2013-12-26,49,38,30,12,8,3,39,29,18,30.58,30.49,19,2,23,0.00
2013-12-27,50,37,27,19,12,3,66,37,22,30.58,30.43,6,1,17,0.00
2013-12-28,46,33,22,23,18,14,77,57,33,30.43,30.26,2,0,5,0.00
2013-12-29,40,32,27,23,16,4,78,52,35,30.51,30.28,12,2,24,0.00
2013-12-30,53,37,24,23,9,-7,69,36,16,30.61,30.49,5,1,11,0.00
2013-12-31,53,36,24,23,20,17,75,56,28,30.55,30.41,5,0,7,0.00
2014-1-1,51,37,23,23,19,12,78,52,31,30.51,30.41,6,1,16,0.00
2014-1-2,57,41,28,21,10,-2,68,32,10,30.50,30.34,6,1,12,0.00